Time;durP1;ratioP1;P1;durP2;ratioP2;P2;SDS_P1;SDS_P2;PMS_P1;PMS_P2;Temp;Humidity;BMP_temperature;BMP_pressure;BME280_temperature;BME280_humidity;BME280_pressure;Samples;Min_cycle;Max_cycle;Signal;HPM_P1;HPM_P2
2023/12/16 00:01:11;;;;;;;10.05;5.03;;;6.40;99.90;;;;;;4990225;28;20092;-71
2023/12/16 00:03:36;;;;;;;9.07;4.30;;;6.40;99.90;;;;;;5007506;28;20544;-71
2023/12/16 00:06:02;;;;;;;8.68;4.30;;;6.40;99.90;;;;;;5006523;28;20030;-71
2023/12/16 00:08:28;;;;;;;8.63;4.57;;;6.30;99.90;;;;;;5011255;28;20030;-71
2023/12/16 00:10:54;;;;;;;12.23;4.97;;;6.30;99.90;;;;;;4987135;28;20505;-71
2023/12/16 00:13:19;;;;;;;9.93;5.07;;;6.20;99.90;;;;;;4978019;28;20377;-71
2023/12/16 00:15:45;;;;;;;7.30;4.85;;;6.10;99.90;;;;;;5006641;28;20109;-71
2023/12/16 00:18:11;;;;;;;6.90;4.07;;;6.10;99.90;;;;;;5006328;28;20038;-71
2023/12/16 00:20:37;;;;;;;10.38;5.63;;;6.00;99.90;;;;;;4987794;28;20033;-71
2023/12/16 00:23:03;;;;;;;9.50;5.28;;;6.00;99.90;;;;;;5003311;28;20064;-71
2023/12/16 00:25:29;;;;;;;9.52;5.65;;;5.90;99.90;;;;;;4992441;28;20037;-71
2023/12/16 00:27:55;;;;;;;11.38;5.00;;;5.90;99.90;;;;;;5007684;28;20026;-71
2023/12/16 00:30:21;;;;;;;10.93;5.40;;;6.00;99.90;;;;;;4992415;28;20029;-71
2023/12/16 00:32:47;;;;;;;14.38;5.97;;;5.90;99.90;;;;;;4975870;28;20037;-70
2023/12/16 00:35:13;;;;;;;8.88;5.45;;;5.90;99.90;;;;;;5010422;28;20022;-71
2023/12/16 00:37:39;;;;;;;10.70;5.43;;;5.90;99.90;;;;;;5007826;28;20029;-71
2023/12/16 00:40:07;;;;;;;19.85;6.18;;;5.90;99.90;;;;;;5008992;28;20038;-71
2023/12/16 00:42:33;;;;;;;8.25;4.82;;;5.90;99.90;;;;;;4993172;28;20113;-71
2023/12/16 00:44:59;;;;;;;9.52;4.93;;;5.80;99.90;;;;;;4991981;28;20137;-71
2023/12/16 00:47:25;;;;;;;11.10;5.05;;;5.80;99.90;;;;;;4992981;28;20030;-71
2023/12/16 00:49:51;;;;;;;11.90;5.45;;;5.80;99.90;;;;;;5009211;28;20033;-71
2023/12/16 00:52:17;;;;;;;12.70;6.78;;;5.80;99.90;;;;;;4977362;28;20018;-71
2023/12/16 00:54:43;;;;;;;10.77;4.78;;;5.80;99.90;;;;;;4990230;28;20033;-71
2023/12/16 00:57:09;;;;;;;11.20;5.30;;;5.80;99.90;;;;;;5010686;28;20057;-70
2023/12/16 00:59:35;;;;;;;16.85;6.20;;;5.80;99.90;;;;;;4990668;28;20540;-70
2023/12/16 01:02:01;;;;;;;9.93;5.32;;;5.70;99.90;;;;;;5006656;28;20045;-70
2023/12/16 01:04:26;;;;;;;9.02;5.53;;;5.70;99.90;;;;;;4996721;28;20061;-70
2023/12/16 01:06:52;;;;;;;12.38;5.82;;;5.70;99.90;;;;;;5010485;28;20030;-71
2023/12/16 01:09:18;;;;;;;14.07;5.03;;;5.70;99.90;;;;;;5014438;28;20022;-71
2023/12/16 01:11:45;;;;;;;11.48;5.15;;;5.70;99.90;;;;;;4996216;28;20421;-71
2023/12/16 01:14:11;;;;;;;12.70;5.75;;;5.70;99.90;;;;;;5007893;28;20092;-70
2023/12/16 01:16:37;;;;;;;8.82;4.78;;;5.70;99.90;;;;;;4996562;28;20026;-70
2023/12/16 01:19:02;;;;;;;10.18;5.03;;;5.70;99.90;;;;;;4996771;28;20072;-70
2023/12/16 01:21:31;;;;;;;16.42;5.25;;;5.70;99.90;;;;;;5010785;28;20022;-70
2023/12/16 01:23:57;;;;;;;8.98;5.07;;;5.70;99.90;;;;;;5010106;28;20053;-71
2023/12/16 01:26:23;;;;;;;7.47;5.28;;;5.70;99.90;;;;;;4988342;28;20053;-71
2023/12/16 01:28:49;;;;;;;6.68;4.43;;;5.70;99.90;;;;;;4991094;28;20038;-70
2023/12/16 01:31:14;;;;;;;15.10;5.40;;;5.70;99.90;;;;;;4994567;28;20050;-71
2023/12/16 01:33:40;;;;;;;15.45;5.65;;;5.70;99.90;;;;;;4993863;28;20038;-71
2023/12/16 01:36:07;;;;;;;8.32;4.57;;;5.70;99.90;;;;;;5005651;28;20022;-70
2023/12/16 01:38:33;;;;;;;9.27;5.07;;;5.70;99.90;;;;;;5010569;28;20034;-70
2023/12/16 01:40:58;;;;;;;13.80;6.55;;;5.70;99.90;;;;;;4994762;28;20041;-71
2023/12/16 01:43:24;;;;;;;11.25;5.60;;;5.70;99.90;;;;;;4990078;28;20375;-71
2023/12/16 01:46:03;;;;;;;16.27;4.88;;;5.70;99.90;;;;;;4995938;28;20033;-70
2023/12/16 01:48:30;;;;;;;11.10;4.93;;;5.70;99.90;;;;;;4996749;28;20520;-70
2023/12/16 01:50:57;;;;;;;10.60;4.85;;;5.70;99.90;;;;;;5009359;28;20124;-72
2023/12/16 01:53:24;;;;;;;8.55;3.92;;;5.70;99.90;;;;;;4985830;28;20042;-72
2023/12/16 01:55:50;;;;;;;9.85;5.13;;;5.70;99.90;;;;;;5006372;28;20470;-72
2023/12/16 01:58:16;;;;;;;8.55;4.63;;;5.70;99.90;;;;;;4991121;28;20026;-71
2023/12/16 02:00:44;;;;;;;9.68;4.95;;;5.70;99.90;;;;;;4993441;28;20058;-71
2023/12/16 02:03:14;;;;;;;14.63;5.53;;;5.70;99.90;;;;;;5012134;28;20112;-70
2023/12/16 02:05:40;;;;;;;11.63;5.47;;;5.70;99.90;;;;;;4989128;28;20053;-70
2023/12/16 02:08:06;;;;;;;11.13;6.25;;;5.70;99.90;;;;;;4986458;28;20116;-70
2023/12/16 02:10:32;;;;;;;9.73;5.65;;;5.70;99.90;;;;;;5009651;28;20044;-70
2023/12/16 02:13:02;;;;;;;9.73;5.05;;;5.70;99.90;;;;;;4975407;28;20022;-71
2023/12/16 02:15:28;;;;;;;12.05;6.55;;;5.70;99.90;;;;;;4994701;28;20152;-71
2023/12/16 02:17:54;;;;;;;9.80;5.22;;;5.70;99.90;;;;;;4990064;28;20030;-71
2023/12/16 02:20:20;;;;;;;11.02;5.90;;;5.70;99.90;;;;;;4973911;28;20029;-72
2023/12/16 02:22:47;;;;;;;11.32;5.50;;;5.70;99.90;;;;;;4990253;28;20034;-72
2023/12/16 02:25:14;;;;;;;9.73;5.35;;;5.70;99.90;;;;;;4990085;28;20500;-71
2023/12/16 02:27:42;;;;;;;10.75;5.38;;;5.70;99.90;;;;;;4993476;28;20034;-71
2023/12/16 02:30:11;;;;;;;11.40;6.05;;;5.80;99.90;;;;;;5008863;28;21244;-71
2023/12/16 02:32:38;;;;;;;14.48;7.45;;;5.80;99.90;;;;;;4991098;28;20474;-71
2023/12/16 02:35:05;;;;;;;9.98;6.68;;;5.80;99.90;;;;;;4987518;28;20017;-71
2023/12/16 02:37:30;;;;;;;13.05;6.95;;;5.80;99.90;;;;;;5008171;28;20026;-72
2023/12/16 02:39:56;;;;;;;10.00;5.78;;;5.80;99.90;;;;;;5004310;28;20045;-71
2023/12/16 02:42:22;;;;;;;8.35;5.30;;;5.80;99.90;;;;;;5001382;28;20031;-71
2023/12/16 02:44:48;;;;;;;11.95;6.45;;;5.80;99.90;;;;;;5003455;28;20152;-71
2023/12/16 02:47:14;;;;;;;18.10;6.68;;;5.80;99.90;;;;;;5006643;28;20184;-71
2023/12/16 02:49:40;;;;;;;10.80;5.88;;;5.80;99.90;;;;;;4987630;28;20030;-72
2023/12/16 02:52:06;;;;;;;13.07;6.07;;;5.80;99.90;;;;;;5007766;28;20022;-71
2023/12/16 02:54:32;;;;;;;20.55;5.32;;;5.80;99.90;;;;;;5003057;28;20022;-72
2023/12/16 02:56:58;;;;;;;6.78;4.57;;;5.80;99.90;;;;;;5002657;28;20128;-72
2023/12/16 02:59:24;;;;;;;14.23;7.25;;;5.80;99.90;;;;;;5000591;28;20466;-72
2023/12/16 03:01:49;;;;;;;13.43;4.93;;;5.80;99.90;;;;;;4989161;28;20382;-71
2023/12/16 03:04:15;;;;;;;10.52;6.10;;;5.80;99.90;;;;;;5005874;28;20032;-71
2023/12/16 03:06:45;;;;;;;13.73;6.30;;;5.80;99.90;;;;;;5002637;28;20057;-71
2023/12/16 03:09:11;;;;;;;13.88;6.85;;;5.90;99.90;;;;;;5005020;28;20139;-71
2023/12/16 03:11:38;;;;;;;11.90;5.82;;;5.90;99.90;;;;;;5004366;28;20081;-71
2023/12/16 03:14:04;;;;;;;11.77;6.43;;;5.90;99.90;;;;;;5000271;28;20022;-71
2023/12/16 03:16:34;;;;;;;14.60;6.15;;;6.00;99.90;;;;;;4985672;28;20386;-71
2023/12/16 03:19:00;;;;;;;16.48;7.32;;;6.00;99.90;;;;;;4984121;28;20113;-70
2023/12/16 03:21:26;;;;;;;10.27;5.75;;;6.00;99.90;;;;;;5001421;28;20113;-71
2023/12/16 03:23:52;;;;;;;10.10;5.80;;;6.00;99.90;;;;;;4999515;28;20604;-71
2023/12/16 03:26:21;;;;;;;13.38;6.70;;;6.00;99.90;;;;;;5003818;28;20112;-71
2023/12/16 03:28:47;;;;;;;10.95;5.13;;;6.00;99.90;;;;;;4987471;28;20479;-71
2023/12/16 03:31:13;;;;;;;11.55;5.63;;;5.90;99.90;;;;;;5001972;28;20029;-71
2023/12/16 03:33:38;;;;;;;10.18;4.60;;;6.00;99.90;;;;;;4988324;28;20387;-71
2023/12/16 03:36:08;;;;;;;17.63;6.65;;;6.00;99.90;;;;;;4999505;28;20030;-71
2023/12/16 03:38:34;;;;;;;10.88;5.18;;;6.00;99.90;;;;;;5002020;28;20033;-72
2023/12/16 03:41:00;;;;;;;13.60;7.07;;;5.90;99.90;;;;;;4998395;28;20021;-71
2023/12/16 03:43:26;;;;;;;14.90;6.63;;;6.00;99.90;;;;;;4984905;28;20500;-71
2023/12/16 03:45:52;;;;;;;13.57;6.50;;;5.90;99.90;;;;;;4972104;28;20057;-71
2023/12/16 03:48:20;;;;;;;12.00;6.28;;;5.90;99.90;;;;;;5003461;28;20032;-70
2023/12/16 03:50:45;;;;;;;17.40;6.40;;;5.90;99.90;;;;;;5004736;28;20034;-71
2023/12/16 03:53:11;;;;;;;12.82;6.70;;;5.80;99.90;;;;;;5003147;28;20030;-71
2023/12/16 03:55:37;;;;;;;11.07;6.43;;;5.80;99.90;;;;;;5001749;28;20409;-71
2023/12/16 03:58:02;;;;;;;10.77;5.90;;;5.80;99.90;;;;;;5001431;28;20092;-71
2023/12/16 04:00:28;;;;;;;10.00;6.18;;;5.70;99.90;;;;;;5004879;28;20030;-72
2023/12/16 04:02:55;;;;;;;11.90;5.80;;;5.80;99.90;;;;;;5003586;28;20081;-71
2023/12/16 04:05:21;;;;;;;11.40;6.72;;;5.80;99.90;;;;;;4987713;28;20486;-71
2023/12/16 04:07:47;;;;;;;9.68;6.07;;;5.70;99.90;;;;;;5000951;28;20034;-72
2023/12/16 04:10:13;;;;;;;17.20;5.97;;;5.80;99.90;;;;;;4990832;28;20033;-74
2023/12/16 04:12:38;;;;;;;14.93;6.97;;;5.70;99.90;;;;;;5000310;28;20027;-71
2023/12/16 04:15:05;;;;;;;12.20;5.65;;;5.70;99.90;;;;;;5004499;28;20068;-71
2023/12/16 04:17:30;;;;;;;11.20;6.50;;;5.60;99.90;;;;;;5001331;28;20449;-71
2023/12/16 04:19:56;;;;;;;11.57;5.57;;;5.60;99.90;;;;;;5009600;28;20080;-72
2023/12/16 04:22:22;;;;;;;10.50;5.15;;;5.60;99.90;;;;;;5003751;28;20539;-71
2023/12/16 04:24:50;;;;;;;11.90;6.00;;;5.60;99.90;;;;;;5004724;28;20034;-72
2023/12/16 04:27:16;;;;;;;11.70;5.95;;;5.60;99.90;;;;;;5005897;28;20046;-71
2023/12/16 04:29:41;;;;;;;10.43;5.43;;;5.50;99.90;;;;;;5002808;28;20371;-71
2023/12/16 04:32:07;;;;;;;9.13;6.32;;;5.60;99.90;;;;;;5005615;28;20042;-71
2023/12/16 04:34:33;;;;;;;13.32;7.57;;;5.50;99.90;;;;;;4999716;28;20490;-71
2023/12/16 04:36:59;;;;;;;18.67;9.20;;;5.50;99.90;;;;;;5007047;28;20033;-71
2023/12/16 04:39:24;;;;;;;12.25;7.13;;;5.60;99.90;;;;;;5005346;28;20108;-72
2023/12/16 04:41:50;;;;;;;15.20;6.75;;;5.50;99.90;;;;;;5007762;28;20486;-72
2023/12/16 04:44:16;;;;;;;8.95;5.45;;;5.60;99.90;;;;;;5005501;28;20093;-72
2023/12/16 04:46:42;;;;;;;12.85;6.10;;;5.50;99.90;;;;;;5005709;28;20115;-72
2023/12/16 04:49:08;;;;;;;21.08;7.70;;;5.50;99.90;;;;;;5005211;28;20518;-72
2023/12/16 04:51:33;;;;;;;17.58;7.00;;;5.50;99.90;;;;;;5006716;28;20171;-72
2023/12/16 04:53:59;;;;;;;14.80;7.15;;;5.50;99.90;;;;;;5005029;28;20385;-72
2023/12/16 04:56:25;;;;;;;14.00;7.03;;;5.50;99.90;;;;;;5002799;28;20026;-72
2023/12/16 04:58:50;;;;;;;14.55;6.05;;;5.50;99.90;;;;;;5006477;28;20045;-72
2023/12/16 05:01:16;;;;;;;14.27;7.05;;;5.50;99.90;;;;;;5007303;28;20042;-72
2023/12/16 05:03:42;;;;;;;16.73;7.63;;;5.40;99.90;;;;;;5006998;28;20033;-71
2023/12/16 05:06:08;;;;;;;12.77;7.28;;;5.40;99.90;;;;;;5005934;28;20394;-71
2023/12/16 05:08:35;;;;;;;13.07;6.13;;;5.40;99.90;;;;;;4990995;28;20158;-72
2023/12/16 05:11:00;;;;;;;9.75;6.20;;;5.30;99.90;;;;;;4989662;28;20037;-72
2023/12/16 05:13:27;;;;;;;14.45;6.72;;;5.30;99.90;;;;;;5005555;28;20057;-71
2023/12/16 05:15:52;;;;;;;13.95;6.82;;;5.30;99.90;;;;;;5003083;28;20026;-72
2023/12/16 05:18:18;;;;;;;19.85;8.10;;;5.30;99.90;;;;;;4989112;28;20031;-71
2023/12/16 05:20:44;;;;;;;13.73;7.00;;;5.30;99.90;;;;;;5002807;28;20034;-71
2023/12/16 05:23:10;;;;;;;12.48;6.65;;;5.20;99.90;;;;;;5003825;28;20034;-71
2023/12/16 05:25:36;;;;;;;14.85;7.05;;;5.20;99.90;;;;;;5003572;28;20030;-71
2023/12/16 05:28:02;;;;;;;14.00;7.15;;;5.20;99.90;;;;;;4992684;28;20124;-71
2023/12/16 05:30:28;;;;;;;13.70;7.78;;;5.20;99.90;;;;;;5004155;28;20498;-72
2023/12/16 05:32:56;;;;;;;14.43;8.00;;;5.20;99.90;;;;;;5006230;28;20030;-71
2023/12/16 05:35:22;;;;;;;17.58;6.32;;;5.30;99.90;;;;;;4987481;28;20077;-71
2023/12/16 05:37:48;;;;;;;11.15;5.93;;;5.20;99.90;;;;;;5005314;28;20060;-72
2023/12/16 05:40:14;;;;;;;15.65;6.38;;;5.30;99.90;;;;;;5003415;28;20062;-72
2023/12/16 05:42:40;;;;;;;12.05;6.30;;;5.30;99.90;;;;;;4989012;28;20037;-72
2023/12/16 05:45:07;;;;;;;20.05;8.32;;;5.20;99.90;;;;;;5003477;28;20547;-71
2023/12/16 05:47:36;;;;;;;15.23;7.35;;;5.20;99.90;;;;;;5001021;28;20061;-71
2023/12/16 05:50:05;;;;;;;11.00;7.30;;;5.20;99.90;;;;;;4991156;28;20029;-71
2023/12/16 05:52:31;;;;;;;12.55;6.13;;;5.20;99.90;;;;;;5003333;28;20022;-72
2023/12/16 05:54:58;;;;;;;14.32;6.78;;;5.20;99.90;;;;;;4993356;28;20409;-71
2023/12/16 05:57:24;;;;;;;12.25;5.57;;;5.20;99.90;;;;;;5004535;28;20026;-72
2023/12/16 05:59:49;;;;;;;17.92;7.60;;;5.20;99.90;;;;;;5005872;28;20030;-72
2023/12/16 06:02:16;;;;;;;15.25;6.70;;;5.20;99.90;;;;;;5007099;28;20025;-70
2023/12/16 06:04:42;;;;;;;19.58;8.90;;;5.20;99.90;;;;;;5000917;28;20040;-72
2023/12/16 06:07:11;;;;;;;13.60;7.40;;;5.20;99.90;;;;;;5013174;28;20462;-72
2023/12/16 06:09:39;;;;;;;13.52;6.15;;;5.20;99.90;;;;;;5005305;28;20065;-72
2023/12/16 06:12:05;;;;;;;12.00;6.78;;;5.30;99.90;;;;;;5014038;28;20022;-72
2023/12/16 06:14:31;;;;;;;11.65;6.72;;;5.30;99.90;;;;;;5012381;28;20030;-69
2023/12/16 06:16:57;;;;;;;12.90;6.95;;;5.30;99.90;;;;;;4986479;28;20369;-69
2023/12/16 06:19:22;;;;;;;11.45;5.63;;;5.30;99.90;;;;;;5004855;28;20044;-70
2023/12/16 06:21:48;;;;;;;15.75;6.05;;;5.30;99.90;;;;;;5010724;28;20062;-71
2023/12/16 06:24:14;;;;;;;11.48;5.55;;;5.30;99.90;;;;;;4985411;28;20381;-68
2023/12/16 06:26:40;;;;;;;12.25;6.03;;;5.30;99.90;;;;;;5005535;28;20026;-70
2023/12/16 06:29:05;;;;;;;13.35;6.53;;;5.30;99.90;;;;;;4990882;28;20116;-70
2023/12/16 06:31:31;;;;;;;16.42;7.35;;;5.30;99.90;;;;;;5007842;28;20022;-71
2023/12/16 06:33:57;;;;;;;12.20;5.88;;;5.30;99.90;;;;;;5010009;28;20134;-71
2023/12/16 06:36:23;;;;;;;14.45;6.70;;;5.30;99.90;;;;;;4995418;28;20382;-71
2023/12/16 06:38:49;;;;;;;14.70;6.78;;;5.30;99.90;;;;;;4975887;28;20049;-71
2023/12/16 06:41:15;;;;;;;10.63;6.05;;;5.30;99.90;;;;;;4993578;28;20105;-70
2023/12/16 06:43:41;;;;;;;9.82;6.72;;;5.30;99.90;;;;;;4987601;28;20038;-70
2023/12/16 06:46:07;;;;;;;11.95;7.18;;;5.30;99.90;;;;;;5008612;28;20038;-70
2023/12/16 06:48:33;;;;;;;15.90;6.80;;;5.30;99.90;;;;;;4998966;28;20453;-70
2023/12/16 06:50:59;;;;;;;8.82;5.75;;;5.30;99.90;;;;;;5012721;28;20042;-70
2023/12/16 06:53:25;;;;;;;14.68;6.75;;;5.30;99.90;;;;;;5002801;28;20532;-69
2023/12/16 06:55:52;;;;;;;17.55;6.35;;;5.30;99.90;;;;;;4990453;28;20058;-70
2023/12/16 06:58:20;;;;;;;13.43;7.78;;;5.30;99.90;;;;;;4994995;28;20521;-70
2023/12/16 07:00:46;;;;;;;11.18;5.85;;;5.20;99.90;;;;;;5006539;28;20038;-71
2023/12/16 07:03:11;;;;;;;12.95;6.63;;;5.20;99.90;;;;;;5002261;28;20088;-70
2023/12/16 07:05:37;;;;;;;15.02;6.25;;;5.20;99.90;;;;;;4993619;28;20022;-72
2023/12/16 07:08:03;;;;;;;9.63;5.25;;;5.30;99.90;;;;;;5010415;28;20778;-71
2023/12/16 07:10:29;;;;;;;14.52;5.72;;;5.30;99.90;;;;;;4981168;28;20450;-71
2023/12/16 07:12:55;;;;;;;12.02;6.82;;;5.30;99.90;;;;;;5001739;28;20100;-70
2023/12/16 07:15:21;;;;;;;10.50;6.07;;;5.20;99.90;;;;;;5004027;28;20044;-70
2023/12/16 07:17:46;;;;;;;14.55;6.90;;;5.20;99.90;;;;;;5004644;28;20246;-70
2023/12/16 07:20:13;;;;;;;14.75;6.55;;;5.20;99.90;;;;;;5002734;28;20030;-69
2023/12/16 07:22:39;;;;;;;9.93;5.68;;;5.30;99.90;;;;;;5000142;28;20036;-70
2023/12/16 07:25:06;;;;;;;31.27;7.50;;;5.30;99.90;;;;;;5010750;28;20040;-69
2023/12/16 07:27:32;;;;;;;14.52;5.90;;;5.30;99.90;;;;;;4986467;28;20080;-70
2023/12/16 07:29:57;;;;;;;12.95;6.00;;;5.30;99.90;;;;;;5004962;28;20026;-70
2023/12/16 07:32:23;;;;;;;15.75;6.95;;;5.30;99.90;;;;;;4989283;28;20436;-70
2023/12/16 07:34:50;;;;;;;14.70;7.32;;;5.30;99.90;;;;;;5008803;28;20064;-70
2023/12/16 07:37:18;;;;;;;14.35;7.82;;;5.30;99.90;;;;;;5011228;28;20033;-71
2023/12/16 07:39:44;;;;;;;18.92;6.82;;;5.30;99.90;;;;;;5002502;28;20037;-70
2023/12/16 07:42:10;;;;;;;13.05;5.78;;;5.30;99.90;;;;;;4994296;28;20057;-70
2023/12/16 07:44:35;;;;;;;11.85;5.72;;;5.30;99.90;;;;;;5025474;23;20030;-67
2023/12/16 07:47:01;;;;;;;11.32;5.63;;;5.30;99.90;;;;;;4973350;28;20414;-69
2023/12/16 07:49:27;;;;;;;12.70;6.95;;;5.30;99.90;;;;;;4991994;28;20536;-69
2023/12/16 07:51:54;;;;;;;11.60;6.60;;;5.30;99.90;;;;;;4998775;28;20042;-69
2023/12/16 07:54:22;;;;;;;12.18;5.38;;;5.40;99.90;;;;;;4991996;28;20622;-69
2023/12/16 07:56:48;;;;;;;17.52;7.68;;;5.40;99.90;;;;;;4991712;28;20371;-70
2023/12/16 07:59:14;;;;;;;17.70;6.93;;;5.50;99.90;;;;;;4992000;28;20426;-69
2023/12/16 08:01:39;;;;;;;13.15;7.07;;;5.50;99.90;;;;;;4977757;28;20069;-69
2023/12/16 08:04:05;;;;;;;10.98;6.35;;;5.50;99.90;;;;;;4973621;28;20045;-70
2023/12/16 08:06:31;;;;;;;14.13;7.07;;;5.50;99.90;;;;;;4991565;28;20084;-70
2023/12/16 08:08:56;;;;;;;16.30;7.30;;;5.50;99.90;;;;;;4991480;28;20034;-70
2023/12/16 08:11:22;;;;;;;9.93;5.70;;;5.50;99.90;;;;;;4992549;28;20030;-70
2023/12/16 08:13:48;;;;;;;10.35;5.80;;;5.50;99.90;;;;;;4977404;28;20037;-70
2023/12/16 08:16:14;;;;;;;20.73;7.32;;;5.50;99.90;;;;;;4995091;28;20092;-70
2023/12/16 08:18:40;;;;;;;12.35;5.88;;;5.50;99.90;;;;;;4977610;28;20053;-71
2023/12/16 08:21:06;;;;;;;11.65;6.13;;;5.50;99.90;;;;;;4981090;28;20038;-70
2023/12/16 08:23:31;;;;;;;14.18;7.28;;;5.50;99.90;;;;;;4983561;28;20030;-70
2023/12/16 08:25:57;;;;;;;15.02;6.85;;;5.60;99.90;;;;;;4995327;28;20045;-70
2023/12/16 08:28:23;;;;;;;14.38;6.78;;;5.60;99.90;;;;;;4995481;28;20386;-70
2023/12/16 08:30:50;;;;;;;14.27;7.30;;;5.60;99.90;;;;;;4995119;28;20037;-70
2023/12/16 08:33:16;;;;;;;14.00;6.93;;;5.60;99.90;;;;;;4977808;28;20018;-70
2023/12/16 08:35:47;;;;;;;14.60;7.25;;;5.60;99.90;;;;;;4981435;28;20422;-70
2023/12/16 08:38:13;;;;;;;14.80;6.57;;;5.70;99.90;;;;;;4995501;28;20030;-70
2023/12/16 08:40:39;;;;;;;17.13;8.52;;;5.70;99.90;;;;;;4995102;28;20061;-70
2023/12/16 08:43:04;;;;;;;14.75;6.70;;;5.80;99.90;;;;;;4985668;28;20426;-68
2023/12/16 08:45:30;;;;;;;16.30;8.23;;;5.80;99.90;;;;;;4978970;28;20109;-68
2023/12/16 08:47:56;;;;;;;11.80;5.90;;;5.80;99.90;;;;;;4983224;28;20070;-69
2023/12/16 08:50:23;;;;;;;14.32;7.30;;;5.80;99.90;;;;;;4994360;28;20398;-69
2023/12/16 08:52:49;;;;;;;15.13;7.68;;;5.80;99.90;;;;;;4997925;28;20034;-69
2023/12/16 08:55:15;;;;;;;24.63;9.73;;;5.90;99.90;;;;;;4994891;28;20033;-69
2023/12/16 08:57:43;;;;;;;13.55;8.02;;;5.90;99.90;;;;;;4988454;28;20035;-69
2023/12/16 09:00:09;;;;;;;13.45;7.53;;;5.90;99.90;;;;;;4991556;28;20042;-69
2023/12/16 09:02:36;;;;;;;13.15;7.10;;;6.00;99.90;;;;;;4993520;28;20599;-69
2023/12/16 09:05:02;;;;;;;17.00;7.63;;;6.00;99.90;;;;;;4983281;28;20038;-70
2023/12/16 09:07:28;;;;;;;10.43;5.68;;;6.10;99.90;;;;;;4981189;28;20034;-69
2023/12/16 09:09:53;;;;;;;15.20;7.20;;;6.10;99.90;;;;;;4987763;28;20426;-68
2023/12/16 09:12:19;;;;;;;18.95;8.02;;;6.10;99.90;;;;;;4994516;28;20026;-69
2023/12/16 09:14:45;;;;;;;12.43;6.55;;;6.10;99.90;;;;;;4994538;28;20040;-69
2023/12/16 09:17:10;;;;;;;18.70;7.90;;;6.20;99.90;;;;;;4994598;28;20108;-69
2023/12/16 09:19:36;;;;;;;14.23;7.20;;;6.20;99.90;;;;;;4986980;28;20460;-69
2023/12/16 09:22:02;;;;;;;13.77;7.30;;;6.20;99.90;;;;;;4993860;28;20113;-70
2023/12/16 09:24:27;;;;;;;13.85;7.82;;;6.20;99.90;;;;;;4994435;28;20482;-70
2023/12/16 09:26:53;;;;;;;12.48;6.75;;;6.20;99.90;;;;;;4994069;28;20034;-69
2023/12/16 09:29:19;;;;;;;18.23;7.50;;;6.30;99.90;;;;;;4990920;28;20471;-70
2023/12/16 09:31:45;;;;;;;16.48;6.65;;;6.40;99.90;;;;;;4990071;28;20069;-69
2023/12/16 09:34:10;;;;;;;17.30;6.35;;;6.40;99.90;;;;;;4993810;28;20030;-70
2023/12/16 09:36:36;;;;;;;18.17;7.80;;;6.40;99.90;;;;;;4994237;28;20169;-69
2023/12/16 09:39:02;;;;;;;15.30;7.00;;;6.40;99.90;;;;;;5001257;28;20047;-69
2023/12/16 09:41:30;;;;;;;14.40;7.50;;;6.60;99.90;;;;;;4965342;28;20030;-69
2023/12/16 09:44:00;;;;;;;20.65;6.53;;;6.60;99.90;;;;;;4994251;28;20045;-69
2023/12/16 09:46:30;;;;;;;17.05;7.10;;;6.60;99.90;;;;;;4988458;28;20026;-69
2023/12/16 09:48:58;;;;;;;12.90;7.35;;;6.50;99.90;;;;;;4981261;28;20030;-69
2023/12/16 09:51:24;;;;;;;14.27;7.53;;;6.50;99.90;;;;;;4986048;28;20494;-69
2023/12/16 09:53:54;;;;;;;26.83;6.90;;;6.50;99.90;;;;;;4975621;28;20088;-69
2023/12/16 09:56:21;;;;;;;14.38;6.03;;;6.60;99.90;;;;;;4966008;28;20386;-69
2023/12/16 09:58:49;;;;;;;16.88;7.40;;;6.50;99.90;;;;;;4984571;28;20034;-69
2023/12/16 10:01:18;;;;;;;18.73;7.65;;;6.60;99.90;;;;;;4979460;28;20117;-69
2023/12/16 10:03:47;;;;;;;11.55;6.18;;;6.60;99.90;;;;;;4970835;28;20438;-69
2023/12/16 10:06:13;;;;;;;17.33;6.20;;;6.70;99.90;;;;;;4992060;28;20386;-69
2023/12/16 10:08:41;;;;;;;12.93;5.95;;;6.60;99.90;;;;;;4986347;28;20035;-69
2023/12/16 10:11:07;;;;;;;16.15;8.55;;;6.60;99.90;;;;;;4998015;28;20054;-69
2023/12/16 10:13:54;;;;;;;18.83;8.45;;;6.70;99.90;;;;;;4980109;28;20064;-70
2023/12/16 10:16:24;;;;;;;14.43;6.75;;;6.80;99.90;;;;;;4976569;28;20026;-69
2023/12/16 10:18:55;;;;;;;23.48;9.80;;;6.90;99.90;;;;;;4992198;28;20127;-70
2023/12/16 10:21:33;;;;;;;18.35;8.68;;;7.00;99.90;;;;;;4984775;28;20037;-69
2023/12/16 10:24:01;;;;;;;12.77;5.80;;;7.30;99.90;;;;;;4993006;28;20049;-70
2023/12/16 10:26:33;;;;;;;12.45;6.40;;;7.30;99.90;;;;;;4997305;28;20026;-70
2023/12/16 10:29:04;;;;;;;16.80;7.45;;;7.50;99.90;;;;;;4970289;28;20045;-70
2023/12/16 10:31:30;;;;;;;15.40;6.88;;;7.90;99.90;;;;;;4975778;28;20037;-69
2023/12/16 10:33:59;;;;;;;16.15;7.13;;;8.20;99.90;;;;;;4981536;28;20034;-70
2023/12/16 10:36:25;;;;;;;19.55;8.48;;;8.60;99.90;;;;;;4988763;28;20033;-69
2023/12/16 10:38:50;;;;;;;21.65;8.63;;;8.50;99.90;;;;;;4986845;28;20022;-69
2023/12/16 10:41:16;;;;;;;16.48;7.22;;;8.30;99.90;;;;;;4987843;28;20482;-69
2023/12/16 10:43:42;;;;;;;15.82;7.15;;;8.50;99.90;;;;;;4982466;28;20038;-69
2023/12/16 10:46:12;;;;;;;18.90;7.03;;;8.90;99.90;;;;;;4991098;28;20034;-69
2023/12/16 10:48:39;;;;;;;16.10;7.38;;;9.10;99.90;;;;;;4984108;28;20048;-69
2023/12/16 10:51:07;;;;;;;16.02;8.55;;;8.90;99.90;;;;;;4989193;28;20565;-69
2023/12/16 10:53:41;;;;;;;14.85;5.40;;;9.00;99.90;;;;;;4983529;28;20027;-70
2023/12/16 10:56:28;;;;;;;15.27;5.57;;;8.70;99.90;;;;;;4988404;28;20490;-69
2023/12/16 10:59:05;;;;;;;15.27;5.72;;;8.80;99.90;;;;;;4985086;28;20030;-69
2023/12/16 11:01:46;;;;;;;13.48;5.50;;;9.40;99.90;;;;;;4971897;28;20037;-69
2023/12/16 11:04:23;;;;;;;15.10;6.55;;;9.50;99.90;;;;;;4984727;28;20042;-70
2023/12/16 11:07:05;;;;;;;15.07;5.70;;;10.00;99.90;;;;;;4969473;28;20375;-70
2023/12/16 11:09:31;;;;;;;14.02;5.75;;;10.20;99.90;;;;;;4980781;28;20057;-70
2023/12/16 11:12:00;;;;;;;10.43;4.72;;;9.30;99.90;;;;;;4989288;28;20031;-70
2023/12/16 11:14:28;;;;;;;16.88;6.57;;;9.10;99.90;;;;;;4972137;28;20026;-70
2023/12/16 11:16:53;;;;;;;11.18;5.38;;;9.60;99.90;;;;;;4975527;28;20042;-70
2023/12/16 11:19:22;;;;;;;13.98;5.40;;;9.70;99.90;;;;;;4983760;28;20037;-70
2023/12/16 11:21:49;;;;;;;14.07;5.88;;;9.30;99.90;;;;;;4985931;28;20110;-70
2023/12/16 11:24:15;;;;;;;25.23;7.45;;;9.30;99.90;;;;;;4985062;28;20434;-70
2023/12/16 11:26:41;;;;;;;11.00;5.07;;;9.50;99.90;;;;;;4985515;28;20508;-70
2023/12/16 11:29:07;;;;;;;16.88;6.53;;;9.10;99.90;;;;;;4986394;28;20043;-69
2023/12/16 11:31:35;;;;;;;14.93;7.43;;;9.20;99.90;;;;;;4988995;28;20052;-70
2023/12/16 11:34:02;;;;;;;13.93;6.78;;;9.10;99.90;;;;;;4988036;28;20084;-70
2023/12/16 11:36:49;;;;;;;14.63;5.72;;;9.10;99.90;;;;;;4988882;28;20030;-70
2023/12/16 11:39:41;;;;;;;13.25;5.63;;;9.00;99.90;;;;;;4978462;28;20033;-70
2023/12/16 11:42:13;;;;;;;11.07;5.30;;;9.20;99.90;;;;;;4985305;28;20038;-70
2023/12/16 11:44:52;;;;;;;16.17;5.15;;;9.10;99.90;;;;;;4957362;28;20115;-70
2023/12/16 11:47:27;;;;;;;15.15;5.70;;;9.10;99.90;;;;;;4986280;28;20034;-71
2023/12/16 11:49:55;;;;;;;16.05;5.32;;;9.30;99.90;;;;;;4967804;28;20023;-69
2023/12/16 11:52:23;;;;;;;13.30;5.40;;;9.30;99.90;;;;;;4968294;28;20027;-70
2023/12/16 11:54:54;;;;;;;9.45;4.82;;;9.70;99.90;;;;;;4982347;28;20027;-69
2023/12/16 11:57:24;;;;;;;12.93;5.53;;;10.00;99.90;;;;;;4985820;28;20034;-71
2023/12/16 11:59:52;;;;;;;9.35;4.13;;;11.70;99.90;;;;;;4980915;28;20433;-71
2023/12/16 12:02:21;;;;;;;12.95;4.10;;;11.00;99.90;;;;;;4986293;28;20394;-70
2023/12/16 12:04:48;;;;;;;6.75;3.13;;;11.60;99.90;;;;;;4971161;28;20034;-70
2023/12/16 12:07:14;;;;;;;9.55;2.65;;;12.10;99.90;;;;;;4985793;28;20040;-70
2023/12/16 12:09:44;;;;;;;12.07;2.58;;;11.00;99.90;;;;;;4987009;28;20026;-70
2023/12/16 12:12:12;;;;;;;9.23;2.53;;;11.40;99.90;;;;;;4986554;28;20027;-71
2023/12/16 12:14:46;;;;;;;15.13;3.33;;;10.60;99.90;;;;;;4986412;28;20026;-70
2023/12/16 12:17:14;;;;;;;17.48;3.65;;;10.30;99.90;;;;;;4970898;28;20061;-70
2023/12/16 12:19:42;;;;;;;6.78;2.53;;;10.30;99.90;;;;;;4971344;28;20038;-70
2023/12/16 12:22:07;;;;;;;7.13;3.25;;;10.80;99.90;;;;;;4985006;28;20018;-71
2023/12/16 12:24:33;;;;;;;17.73;4.22;;;10.20;99.90;;;;;;4971224;28;20019;-71
2023/12/16 12:26:59;;;;;;;7.18;3.20;;;9.70;99.90;;;;;;4973186;28;20033;-71
2023/12/16 12:29:25;;;;;;;6.20;2.85;;;9.50;99.90;;;;;;4984793;28;20027;-71
2023/12/16 12:31:52;;;;;;;10.68;3.30;;;9.30;99.90;;;;;;4982906;28;20085;-70
2023/12/16 12:34:23;;;;;;;6.32;2.97;;;9.40;99.90;;;;;;4982998;28;20022;-71
2023/12/16 12:36:55;;;;;;;12.45;6.47;;;9.30;99.90;;;;;;4972861;28;20033;-70
2023/12/16 12:39:21;;;;;;;7.00;3.20;;;9.50;99.90;;;;;;4973206;28;20498;-71
2023/12/16 12:42:03;;;;;;;8.50;2.53;;;9.80;99.90;;;;;;4973445;28;20045;-59
2023/12/16 12:44:30;;;;;;;7.90;1.33;;;10.10;99.90;;;;;;4984833;28;20478;-54
2023/12/16 12:46:56;;;;;;;6.75;1.50;;;10.20;99.90;;;;;;4987580;28;20081;-58